createdAt,value
2018-10-19T00:02:09.313Z,7.50
2018-10-19T00:05:13.012Z,7.45
2018-10-19T00:08:16.718Z,7.41
2018-10-19T00:11:20.433Z,7.33
2018-10-19T00:14:24.182Z,7.40
2018-10-19T00:17:27.889Z,7.25
2018-10-19T00:20:31.500Z,7.22
2018-10-19T00:23:35.165Z,7.13
2018-10-19T00:26:38.848Z,7.13
2018-10-19T00:29:42.605Z,7.03
2018-10-19T00:32:46.212Z,7.07
2018-10-19T00:35:49.832Z,7.15
2018-10-19T00:38:53.459Z,7.35
2018-10-19T00:41:56.967Z,7.34
2018-10-19T00:45:00.577Z,7.50
2018-10-19T00:48:11.964Z,7.49
2018-10-19T00:51:15.538Z,7.42
2018-10-19T00:54:19.203Z,7.42
2018-10-19T00:57:22.903Z,7.34
2018-10-19T01:00:26.528Z,7.32
2018-10-19T01:03:30.089Z,7.23
2018-10-19T01:06:33.699Z,7.13
2018-10-19T01:09:37.445Z,7.23
2018-10-19T01:12:41.023Z,7.33
2018-10-19T01:15:44.539Z,7.54
2018-10-19T01:18:48.129Z,7.62
2018-10-19T01:21:51.709Z,7.67
2018-10-19T01:24:55.379Z,7.72
2018-10-19T01:27:58.974Z,7.79
2018-10-19T01:31:02.523Z,7.83
2018-10-19T01:34:06.278Z,7.79
2018-10-19T01:37:09.913Z,7.81
2018-10-19T01:40:14.230Z,7.83
2018-10-19T01:43:17.816Z,7.89
2018-10-19T01:46:21.419Z,7.90
2018-10-19T01:49:24.998Z,7.91
2018-10-19T01:52:28.619Z,7.99
2018-10-19T01:55:32.115Z,7.91
2018-10-19T01:58:35.781Z,8.04
2018-10-19T02:01:39.267Z,8.06
2018-10-19T02:04:42.832Z,8.09
2018-10-19T02:07:46.487Z,8.08
2018-10-19T02:10:50.033Z,8.09
2018-10-19T02:13:53.725Z,8.21
2018-10-19T02:16:57.401Z,8.15
2018-10-19T02:20:00.937Z,8.07
2018-10-19T02:23:04.774Z,8.02
2018-10-19T02:26:08.434Z,8.03
2018-10-19T02:29:12.045Z,8.01
2018-10-19T02:32:15.620Z,8.03
2018-10-19T02:35:19.402Z,8.06
2018-10-19T02:38:23.046Z,8.04
2018-10-19T02:41:26.574Z,8.05
2018-10-19T02:44:30.232Z,8.05
2018-10-19T02:47:33.974Z,7.89
2018-10-19T02:50:37.526Z,7.88
2018-10-19T02:53:41.094Z,7.93
2018-10-19T02:56:44.634Z,7.87
2018-10-19T02:59:48.299Z,7.84
2018-10-19T03:02:51.876Z,7.88
2018-10-19T03:05:55.371Z,7.90
2018-10-19T03:08:58.936Z,7.84
2018-10-19T03:15:27.998Z,7.67
2018-10-19T03:18:31.520Z,7.70
2018-10-19T03:21:35.080Z,7.67
2018-10-19T03:24:38.925Z,7.68
2018-10-19T03:27:42.666Z,7.68
2018-10-19T03:30:46.281Z,7.56
2018-10-19T03:33:49.815Z,7.55
2018-10-19T03:36:53.394Z,7.50
2018-10-19T03:39:57.002Z,7.53
2018-10-19T03:43:00.584Z,7.35
2018-10-19T03:46:04.195Z,7.32
2018-10-19T03:49:07.932Z,7.25
2018-10-19T03:52:11.408Z,7.32
2018-10-19T03:55:15.122Z,7.27
2018-10-19T03:58:18.761Z,7.38
2018-10-19T04:01:22.454Z,7.35
2018-10-19T04:04:25.989Z,7.32
2018-10-19T04:07:29.620Z,7.32
2018-10-19T04:10:33.201Z,7.35
2018-10-19T04:13:37.760Z,7.13
2018-10-19T04:16:41.420Z,6.99
2018-10-19T04:19:45.105Z,6.97
2018-10-19T04:22:48.633Z,6.96
2018-10-19T04:25:52.176Z,7.02
2018-10-19T04:28:55.760Z,6.87
2018-10-19T04:31:59.295Z,6.93
2018-10-19T04:35:02.980Z,6.96
2018-10-19T04:38:06.520Z,6.93
2018-10-19T04:41:10.166Z,6.97
2018-10-19T04:44:13.727Z,6.98
2018-10-19T04:47:24.032Z,7.03
2018-10-19T04:50:27.662Z,6.91
2018-10-19T04:53:31.398Z,6.95
2018-10-19T04:56:34.890Z,7.00
2018-10-19T04:59:38.483Z,7.00
2018-10-19T05:02:42.104Z,6.98
2018-10-19T05:05:45.684Z,6.90
2018-10-19T05:08:49.214Z,6.95
2018-10-19T05:11:52.857Z,7.07
2018-10-19T05:14:56.375Z,7.02
2018-10-19T05:18:00.181Z,7.02
2018-10-19T05:21:04.038Z,6.94
2018-10-19T05:24:07.664Z,6.88
2018-10-19T05:27:11.322Z,6.89
2018-10-19T05:30:14.895Z,6.94
2018-10-19T05:33:18.462Z,6.89
2018-10-19T05:36:22.308Z,6.70
2018-10-19T05:39:25.846Z,6.71
2018-10-19T05:42:29.464Z,6.71
2018-10-19T05:45:33.068Z,6.69
2018-10-19T05:48:36.588Z,6.58
2018-10-19T05:51:40.115Z,6.67
2018-10-19T05:54:43.867Z,6.72
2018-10-19T05:57:47.435Z,6.72
2018-10-19T06:00:50.945Z,6.65
2018-10-19T06:03:54.536Z,6.64
2018-10-19T06:06:58.181Z,6.67
2018-10-19T06:10:01.863Z,6.76
2018-10-19T06:13:05.476Z,6.65
2018-10-19T06:16:09.061Z,6.49
2018-10-19T06:19:12.612Z,6.53
2018-10-19T06:22:16.217Z,6.51
2018-10-19T06:25:19.707Z,6.46
2018-10-19T06:28:23.323Z,6.45
2018-10-19T06:31:26.968Z,6.54
2018-10-19T06:34:30.521Z,6.60
2018-10-19T06:37:34.160Z,6.54
2018-10-19T06:40:37.753Z,6.64
2018-10-19T06:43:41.446Z,6.60
2018-10-19T06:46:45.060Z,6.71
2018-10-19T06:49:48.538Z,6.85
2018-10-19T06:52:52.096Z,6.83
2018-10-19T06:55:59.273Z,6.94
2018-10-19T06:59:05.166Z,6.87
2018-10-19T07:02:11.169Z,6.87
2018-10-19T07:05:16.042Z,6.94
2018-10-19T07:08:19.946Z,7.04
2018-10-19T07:11:23.593Z,7.05
2018-10-19T07:14:28.629Z,7.08
2018-10-19T07:17:32.160Z,7.11
2018-10-19T07:20:35.862Z,7.18
2018-10-19T07:23:39.443Z,7.31
2018-10-19T07:26:43.044Z,7.28
2018-10-19T07:29:46.675Z,7.34
2018-10-19T07:32:50.218Z,7.55
2018-10-19T07:35:54.063Z,7.44
2018-10-19T07:38:57.597Z,7.48
2018-10-19T07:42:01.193Z,7.28
2018-10-19T07:45:04.852Z,7.41
2018-10-19T07:48:08.711Z,7.22
2018-10-19T07:51:12.964Z,7.22
2018-10-19T07:54:16.535Z,7.40
2018-10-19T07:57:20.133Z,7.39
2018-10-19T08:00:23.786Z,7.54
2018-10-19T08:03:27.399Z,7.52
2018-10-19T08:06:31.047Z,7.41
2018-10-19T08:09:34.644Z,7.39
2018-10-19T08:12:38.265Z,7.58
2018-10-19T08:15:41.798Z,7.63
2018-10-19T08:18:45.403Z,7.74
2018-10-19T08:21:49.081Z,7.71
2018-10-19T08:24:53.694Z,7.72
2018-10-19T08:27:57.214Z,7.75
2018-10-19T08:31:00.808Z,7.70
2018-10-19T08:34:04.653Z,7.58
2018-10-19T08:37:08.188Z,7.74
2018-10-19T08:40:11.693Z,7.75
2018-10-19T08:43:15.330Z,7.65
2018-10-19T08:46:24.210Z,7.98
2018-10-19T08:49:27.858Z,8.00
2018-10-19T08:52:31.450Z,7.71
2018-10-19T08:55:35.148Z,8.13
2018-10-19T08:58:38.699Z,8.20
2018-10-19T09:01:42.254Z,8.06
2018-10-19T09:04:45.797Z,8.04
2018-10-19T09:07:49.474Z,8.21
2018-10-19T09:10:53.269Z,8.47
2018-10-19T09:13:56.820Z,8.52
2018-10-19T09:17:00.529Z,8.57
2018-10-19T09:20:04.395Z,8.73
2018-10-19T09:23:08.106Z,8.26
2018-10-19T09:26:11.654Z,8.80
2018-10-19T09:29:15.711Z,8.87
2018-10-19T09:32:19.258Z,8.95
2018-10-19T09:35:22.790Z,9.33
2018-10-19T09:38:26.342Z,9.41
2018-10-19T09:41:30.139Z,9.44
2018-10-19T09:44:33.859Z,9.41
2018-10-19T09:47:37.526Z,9.89
2018-10-19T09:50:41.124Z,9.54
2018-10-19T09:53:44.684Z,9.52
2018-10-19T09:56:48.257Z,9.52
2018-10-19T09:59:51.855Z,9.24
2018-10-19T10:02:55.549Z,9.42
2018-10-19T10:05:59.204Z,9.01
2018-10-19T10:09:03.004Z,8.97
2018-10-19T10:12:06.519Z,9.12
2018-10-19T10:15:10.240Z,9.02
2018-10-19T10:18:13.550Z,9.12
2018-10-19T10:21:17.375Z,8.70
2018-10-19T10:24:21.011Z,8.67
2018-10-19T10:27:24.721Z,8.65
2018-10-19T10:30:28.367Z,8.53
2018-10-19T10:33:31.985Z,8.70
2018-10-19T10:36:35.541Z,8.66
2018-10-19T10:39:39.076Z,8.70
2018-10-19T10:42:42.637Z,8.67
2018-10-19T10:45:46.210Z,8.80
2018-10-19T10:48:49.704Z,8.79
2018-10-19T10:51:53.431Z,8.80
2018-10-19T10:54:57.060Z,9.02
2018-10-19T10:58:00.724Z,9.00
2018-10-19T11:01:04.456Z,9.05
2018-10-19T11:04:08.123Z,9.04
2018-10-19T11:07:11.604Z,9.09
2018-10-19T11:10:15.137Z,9.09
2018-10-19T11:13:18.840Z,9.12
2018-10-19T11:16:22.447Z,9.15
2018-10-19T11:19:26.024Z,9.32
2018-10-19T11:22:29.605Z,9.44
2018-10-19T11:25:33.384Z,9.49
2018-10-19T11:28:36.949Z,9.66
2018-10-19T11:31:40.567Z,9.79
2018-10-19T11:34:44.079Z,9.77
2018-10-19T11:37:47.776Z,9.78
2018-10-19T11:40:51.305Z,9.78
2018-10-19T11:43:54.826Z,9.95
2018-10-19T11:47:00.732Z,10.06
2018-10-19T11:50:04.346Z,10.25
2018-10-19T11:53:07.986Z,10.48
2018-10-19T11:56:11.509Z,10.42
2018-10-19T11:59:15.099Z,10.42
2018-10-19T12:02:18.611Z,10.31
2018-10-19T12:05:22.282Z,10.44
2018-10-19T12:08:25.833Z,10.50
2018-10-19T12:11:29.520Z,10.64
2018-10-19T12:14:33.066Z,10.90
2018-10-19T12:17:36.632Z,11.18
2018-10-19T12:20:40.248Z,11.13
2018-10-19T12:23:43.882Z,11.31
2018-10-19T12:26:47.451Z,11.59
2018-10-19T12:29:51.137Z,11.54
2018-10-19T12:32:54.727Z,11.52
2018-10-19T12:35:58.312Z,11.61
2018-10-19T12:39:02.023Z,11.83
2018-10-19T12:42:05.845Z,12.13
2018-10-19T12:45:20.532Z,12.10
2018-10-19T12:48:24.201Z,12.03
2018-10-19T12:51:27.870Z,11.96
2018-10-19T12:54:32.872Z,11.97
2018-10-19T12:57:36.723Z,11.99
2018-10-19T13:00:40.456Z,11.98
2018-10-19T13:03:44.288Z,12.04
2018-10-19T13:06:47.925Z,12.00
2018-10-19T13:09:51.753Z,12.18
2018-10-19T13:12:55.377Z,12.45
2018-10-19T13:15:59.626Z,12.73
2018-10-19T13:19:03.543Z,12.79
2018-10-19T13:22:07.201Z,12.50
2018-10-19T13:25:10.943Z,12.53
2018-10-19T13:28:14.912Z,12.58
2018-10-19T13:31:18.575Z,12.31
2018-10-19T13:34:22.385Z,12.28
2018-10-19T13:37:26.042Z,12.15
2018-10-19T13:40:29.701Z,12.25
2018-10-19T13:43:33.173Z,12.16
2018-10-19T13:46:36.991Z,12.03
2018-10-19T13:49:40.655Z,12.00
2018-10-19T13:52:44.369Z,12.47
2018-10-19T13:55:48.063Z,12.74
2018-10-19T13:58:51.673Z,12.61
2018-10-19T14:01:55.377Z,12.35
2018-10-19T14:04:59.024Z,12.18
2018-10-19T14:08:02.534Z,12.47
2018-10-19T14:11:06.440Z,12.45
2018-10-19T14:14:10.174Z,12.73
2018-10-19T14:17:14.006Z,12.79
2018-10-19T14:20:17.643Z,12.87
2018-10-19T14:23:21.236Z,12.75
2018-10-19T14:26:24.821Z,12.71
2018-10-19T14:29:28.539Z,12.60
2018-10-19T14:32:32.153Z,12.63
2018-10-19T14:35:35.903Z,12.57
2018-10-19T14:38:39.614Z,12.38
2018-10-19T14:41:43.304Z,12.41
2018-10-19T14:44:46.968Z,12.69
2018-10-19T14:47:50.488Z,12.69
2018-10-19T14:50:54.129Z,12.67
2018-10-19T14:53:57.778Z,12.57
2018-10-19T14:57:01.418Z,12.42
2018-10-19T15:00:05.883Z,12.66
2018-10-19T15:03:09.693Z,12.45
2018-10-19T15:06:13.236Z,12.43
2018-10-19T15:09:17.044Z,12.44
2018-10-19T15:12:20.768Z,12.50
2018-10-19T15:15:24.497Z,12.40
2018-10-19T15:18:28.087Z,12.53
2018-10-19T15:21:31.842Z,12.41
2018-10-19T15:24:35.484Z,12.00
2018-10-19T15:27:40.010Z,11.72
2018-10-19T15:30:43.633Z,11.66
2018-10-19T15:33:47.178Z,11.55
2018-10-19T15:36:50.790Z,11.76
2018-10-19T15:39:54.568Z,11.90
2018-10-19T15:42:58.214Z,11.73
2018-10-19T15:46:01.799Z,11.68
2018-10-19T15:49:05.425Z,11.62
2018-10-19T15:52:08.987Z,11.83
2018-10-19T15:55:12.643Z,11.70
2018-10-19T15:58:16.315Z,11.64
2018-10-19T16:01:19.909Z,11.53
2018-10-19T16:04:23.516Z,11.59
2018-10-19T16:07:27.163Z,11.69
2018-10-19T16:10:30.817Z,11.60
2018-10-19T16:13:34.642Z,11.36
2018-10-19T16:16:38.270Z,11.34
2018-10-19T16:19:42.183Z,11.10
2018-10-19T16:22:45.802Z,10.83
2018-10-19T16:25:49.492Z,10.75
2018-10-19T16:28:53.133Z,10.64
2018-10-19T16:31:56.840Z,10.67
2018-10-19T16:35:00.613Z,10.52
2018-10-19T16:38:04.438Z,10.28
2018-10-19T16:41:08.045Z,10.12
2018-10-19T16:44:11.734Z,10.06
2018-10-19T16:47:15.468Z,9.84
2018-10-19T16:50:19.093Z,9.83
2018-10-19T16:53:22.905Z,9.78
2018-10-19T16:56:26.701Z,9.71
2018-10-19T16:59:30.370Z,9.67
2018-10-19T17:02:33.936Z,9.55
2018-10-19T17:05:37.763Z,9.47
2018-10-19T17:08:41.457Z,9.42
2018-10-19T17:11:45.031Z,9.42
2018-10-19T17:14:48.760Z,9.44
2018-10-19T17:17:52.419Z,9.47
2018-10-19T17:20:56.126Z,9.46
2018-10-19T17:23:59.898Z,9.22
2018-10-19T17:27:03.541Z,9.24
2018-10-19T17:30:09.590Z,9.09
2018-10-19T17:33:13.303Z,9.07
2018-10-19T17:36:16.832Z,9.17
2018-10-19T17:39:20.545Z,9.27
2018-10-19T17:42:24.457Z,9.38
2018-10-19T17:45:28.144Z,9.48
2018-10-19T17:48:31.848Z,9.45
2018-10-19T17:51:35.544Z,9.45
2018-10-19T17:54:39.177Z,9.48
2018-10-19T17:57:42.801Z,9.53
2018-10-19T18:00:46.406Z,9.64
2018-10-19T18:03:49.966Z,9.57
2018-10-19T18:06:53.636Z,9.50
2018-10-19T18:09:57.371Z,9.37
2018-10-19T18:13:01.106Z,9.31
2018-10-19T18:16:05.000Z,9.29
2018-10-19T18:19:08.480Z,9.17
2018-10-19T18:22:12.660Z,9.35
2018-10-19T18:25:16.077Z,9.19
2018-10-19T18:28:19.749Z,8.93
2018-10-19T18:31:23.381Z,8.82
2018-10-19T18:34:27.091Z,8.89
2018-10-19T18:37:31.184Z,8.87
2018-10-19T18:40:34.791Z,8.98
2018-10-19T18:43:38.494Z,8.89
2018-10-19T18:46:42.154Z,8.94
2018-10-19T18:49:45.835Z,8.89
2018-10-19T18:52:49.443Z,8.94
2018-10-19T18:55:53.187Z,8.98
2018-10-19T18:58:56.908Z,8.97
2018-10-19T19:02:00.600Z,9.03
2018-10-19T19:05:04.308Z,9.06
2018-10-19T19:08:08.107Z,9.03
2018-10-19T19:11:11.681Z,9.11
2018-10-19T19:14:15.506Z,9.16
2018-10-19T19:17:18.955Z,9.25
2018-10-19T19:20:29.833Z,9.37
2018-10-19T19:23:37.617Z,9.38
2018-10-19T19:26:41.361Z,9.30
2018-10-19T19:29:45.232Z,9.22
2018-10-19T19:32:54.082Z,9.31
2018-10-19T19:35:57.500Z,9.25
2018-10-19T19:39:02.180Z,9.25
2018-10-19T19:42:11.589Z,9.21
2018-10-19T19:45:15.526Z,9.03
2018-10-19T19:48:24.373Z,8.92
2018-10-19T19:51:28.798Z,8.78
2018-10-19T19:54:32.477Z,8.58
2018-10-19T19:57:36.117Z,8.34
2018-10-19T20:00:39.726Z,8.20
2018-10-19T20:03:43.352Z,8.17
2018-10-19T20:06:47.018Z,8.22
2018-10-19T20:09:50.903Z,8.03
2018-10-19T20:12:54.513Z,7.78
2018-10-19T20:15:58.523Z,7.60
2018-10-19T20:19:02.227Z,7.71
2018-10-19T20:22:06.255Z,7.59
2018-10-19T20:25:10.988Z,7.47
2018-10-19T20:28:14.657Z,7.77
2018-10-19T20:31:18.256Z,7.85
2018-10-19T20:34:21.968Z,7.77
2018-10-19T20:37:25.852Z,7.58
2018-10-19T20:40:29.418Z,7.62
2018-10-19T20:43:33.251Z,7.42
2018-10-19T20:46:36.947Z,7.18
2018-10-19T20:49:40.443Z,7.05
2018-10-19T20:52:44.043Z,7.10
2018-10-19T20:55:47.769Z,7.14
2018-10-19T20:58:51.390Z,7.01
2018-10-19T21:01:55.125Z,7.15
2018-10-19T21:04:58.795Z,6.97
2018-10-19T21:08:02.549Z,6.95
2018-10-19T21:11:07.014Z,6.85
2018-10-19T21:14:17.125Z,6.95
2018-10-19T21:17:20.853Z,6.96
2018-10-19T21:20:24.384Z,6.76
2018-10-19T21:23:28.035Z,6.96
2018-10-19T21:26:32.039Z,6.93
2018-10-19T21:29:35.647Z,6.84
2018-10-19T21:32:39.254Z,6.73
2018-10-19T21:35:42.828Z,6.66
2018-10-19T21:38:46.583Z,6.79
2018-10-19T21:41:50.169Z,6.98
2018-10-19T21:44:53.827Z,6.98
2018-10-19T21:47:57.366Z,6.93
2018-10-19T21:51:01.007Z,6.79
2018-10-19T21:54:05.175Z,6.59
2018-10-19T21:57:08.878Z,6.58
2018-10-19T22:00:12.717Z,6.60
2018-10-19T22:03:16.317Z,6.49
2018-10-19T22:06:19.923Z,6.60
2018-10-19T22:09:23.543Z,6.65
2018-10-19T22:12:27.265Z,6.72
2018-10-19T22:15:37.319Z,6.72
2018-10-19T22:18:40.917Z,6.72
2018-10-19T22:21:44.519Z,6.70
2018-10-19T22:24:48.139Z,6.80
2018-10-19T22:27:52.106Z,6.72
2018-10-19T22:30:55.787Z,6.71
2018-10-19T22:33:59.391Z,6.68
2018-10-19T22:37:02.969Z,6.66
2018-10-19T22:40:07.099Z,6.68
2018-10-19T22:43:10.715Z,6.61
2018-10-19T22:46:14.319Z,6.57
2018-10-19T22:49:17.939Z,6.48
2018-10-19T22:52:21.612Z,6.40
2018-10-19T22:55:25.292Z,6.43
2018-10-19T22:58:28.863Z,6.39
2018-10-19T23:01:32.407Z,6.11
2018-10-19T23:04:35.983Z,5.98
2018-10-19T23:07:39.627Z,5.94
2018-10-19T23:10:43.463Z,5.93
2018-10-19T23:13:47.263Z,5.99
2018-10-19T23:16:50.874Z,6.10
2018-10-19T23:19:54.699Z,6.08
2018-10-19T23:22:58.342Z,6.15
2018-10-19T23:26:01.918Z,6.06
2018-10-19T23:29:06.039Z,5.82
2018-10-19T23:32:09.513Z,5.64
2018-10-19T23:35:13.261Z,5.83
2018-10-19T23:38:16.733Z,5.74
2018-10-19T23:41:20.404Z,5.66
2018-10-19T23:44:23.989Z,5.74
2018-10-19T23:47:27.705Z,5.62
2018-10-19T23:50:31.269Z,5.52
2018-10-19T23:53:34.988Z,5.59
2018-10-19T23:56:38.645Z,5.71
2018-10-19T23:59:42.308Z,5.66
